createdAt,value
2018-12-24T00:00:33.581Z,5.40
2018-12-24T00:03:14.821Z,5.40
2018-12-24T00:05:55.984Z,5.40
2018-12-24T00:08:38.572Z,5.40
2018-12-24T00:11:20.182Z,5.40
2018-12-24T00:14:04.156Z,5.40
2018-12-24T00:16:46.293Z,5.40
2018-12-24T00:19:29.554Z,5.40
2018-12-24T00:22:10.917Z,5.40
2018-12-24T00:24:52.223Z,5.40
2018-12-24T00:27:35.199Z,5.40
2018-12-24T00:30:16.223Z,5.40
2018-12-24T00:32:57.746Z,5.40
2018-12-24T00:35:39.219Z,5.40
2018-12-24T00:38:21.125Z,5.40
2018-12-24T00:41:03.001Z,5.50
2018-12-24T00:43:48.428Z,5.50
2018-12-24T00:46:30.436Z,5.50
2018-12-24T00:49:21.840Z,5.50
2018-12-24T00:52:30.464Z,5.60
2018-12-24T00:55:11.199Z,5.60
2018-12-24T00:57:52.589Z,5.60
2018-12-24T01:00:34.547Z,5.60
2018-12-24T01:03:15.848Z,5.60
2018-12-24T01:05:57.771Z,5.60
2018-12-24T01:08:39.962Z,5.60
2018-12-24T01:11:25.024Z,5.60
2018-12-24T01:14:08.968Z,5.60
2018-12-24T01:16:50.000Z,5.60
2018-12-24T01:19:31.964Z,5.60
2018-12-24T01:22:14.045Z,5.60
2018-12-24T01:24:55.662Z,5.60
2018-12-24T01:27:40.947Z,5.70
2018-12-24T01:30:22.028Z,5.70
2018-12-24T01:33:04.323Z,5.70
2018-12-24T01:35:46.082Z,5.70
2018-12-24T01:38:28.178Z,5.70
2018-12-24T01:41:12.639Z,5.70
2018-12-24T01:43:53.921Z,5.70
2018-12-24T01:49:21.592Z,5.70
2018-12-24T01:52:02.768Z,5.70
2018-12-24T01:54:44.563Z,5.70
2018-12-24T01:57:25.942Z,5.70
2018-12-24T02:00:07.426Z,5.70
2018-12-24T02:02:49.073Z,5.70
2018-12-24T02:05:30.352Z,5.70
2018-12-24T02:08:12.166Z,5.80
2018-12-24T02:10:54.052Z,5.80
2018-12-24T02:13:35.892Z,5.80
2018-12-24T02:16:16.161Z,5.80
2018-12-24T02:19:05.661Z,5.80
2018-12-24T02:21:46.996Z,5.80
2018-12-24T02:24:28.520Z,5.90
2018-12-24T02:27:10.388Z,5.90
2018-12-24T02:29:52.227Z,5.90
2018-12-24T02:32:36.522Z,5.90
2018-12-24T02:35:18.422Z,5.90
2018-12-24T02:37:59.957Z,5.90
2018-12-24T02:43:37.540Z,5.90
2018-12-24T02:46:19.341Z,5.90
2018-12-24T02:49:00.551Z,5.90
2018-12-24T02:51:41.592Z,5.90
2018-12-24T02:54:23.366Z,6.00
2018-12-24T02:57:05.347Z,5.90
2018-12-24T02:59:47.451Z,5.90
2018-12-24T03:02:27.789Z,5.90
2018-12-24T03:05:09.851Z,5.90
2018-12-24T03:07:51.768Z,5.90
2018-12-24T03:10:33.052Z,5.90
2018-12-24T03:13:15.298Z,5.90
2018-12-24T03:15:57.078Z,6.00
2018-12-24T03:18:38.859Z,5.90
2018-12-24T03:21:20.017Z,5.90
2018-12-24T03:24:01.887Z,6.00
2018-12-24T03:26:42.983Z,6.00
2018-12-24T03:29:26.585Z,6.00
2018-12-24T03:32:08.358Z,6.00
2018-12-24T03:34:49.472Z,6.00
2018-12-24T03:37:30.687Z,6.00
2018-12-24T03:40:17.180Z,6.00
2018-12-24T03:42:58.358Z,6.00
2018-12-24T03:45:40.144Z,6.00
2018-12-24T03:48:21.363Z,6.00
2018-12-24T03:51:03.251Z,6.00
2018-12-24T03:53:44.880Z,6.00
2018-12-24T03:56:27.509Z,6.00
2018-12-24T03:59:08.485Z,6.00
2018-12-24T04:01:50.390Z,6.00
2018-12-24T04:04:32.327Z,6.00
2018-12-24T04:07:14.013Z,6.00
2018-12-24T04:09:55.247Z,6.00
2018-12-24T04:12:39.581Z,6.00
2018-12-24T04:15:20.820Z,6.00
2018-12-24T04:18:02.447Z,6.00
2018-12-24T04:20:43.639Z,6.10
2018-12-24T04:23:25.530Z,6.00
2018-12-24T04:26:06.887Z,6.00
2018-12-24T04:28:37.477Z,6.10
2018-12-24T04:37:22.589Z,6.20
2018-12-24T04:40:05.227Z,6.10
2018-12-24T04:42:46.881Z,6.00
2018-12-24T04:45:28.054Z,6.00
2018-12-24T04:48:09.999Z,6.00
2018-12-24T04:50:51.265Z,6.00
2018-12-24T04:54:32.978Z,6.00
2018-12-24T04:57:14.357Z,6.00
2018-12-24T04:59:55.461Z,6.00
2018-12-24T05:02:36.791Z,6.00
2018-12-24T05:05:18.545Z,6.00
2018-12-24T05:08:00.202Z,6.00
2018-12-24T05:10:42.196Z,6.00
2018-12-24T05:13:23.458Z,6.00
2018-12-24T05:16:04.571Z,5.90
2018-12-24T05:18:46.275Z,6.00
2018-12-24T05:21:27.940Z,6.00
2018-12-24T05:24:09.276Z,6.00
2018-12-24T05:26:50.561Z,6.00
2018-12-24T05:29:31.836Z,6.00
2018-12-24T05:32:13.377Z,6.00
2018-12-24T05:34:54.715Z,5.90
2018-12-24T05:37:36.239Z,5.90
2018-12-24T05:40:18.009Z,5.90
2018-12-24T05:42:59.740Z,5.90
2018-12-24T05:45:40.864Z,5.90
2018-12-24T05:48:22.165Z,5.90
2018-12-24T05:51:03.654Z,6.00
2018-12-24T05:53:45.180Z,5.90
2018-12-24T05:56:26.594Z,5.90
2018-12-24T05:59:07.899Z,5.90
2018-12-24T06:01:49.430Z,5.90
2018-12-24T06:04:30.520Z,5.90
2018-12-24T06:07:12.646Z,5.90
2018-12-24T06:09:53.989Z,5.80
2018-12-24T06:12:35.607Z,5.80
2018-12-24T06:15:16.987Z,5.80
2018-12-24T06:17:58.444Z,5.80
2018-12-24T06:20:39.940Z,5.80
2018-12-24T06:23:21.295Z,5.80
2018-12-24T06:26:02.633Z,5.80
2018-12-24T06:28:44.430Z,5.80
2018-12-24T06:31:25.799Z,5.80
2018-12-24T06:34:07.328Z,5.80
2018-12-24T06:36:49.121Z,5.80
2018-12-24T06:39:30.866Z,5.80
2018-12-24T06:42:12.490Z,5.80
2018-12-24T06:44:54.149Z,5.80
2018-12-24T06:47:35.914Z,5.80
2018-12-24T06:50:17.232Z,5.70
2018-12-24T06:52:58.996Z,5.70
2018-12-24T06:55:41.250Z,5.70
2018-12-24T06:58:24.306Z,5.70
2018-12-24T07:00:54.609Z,5.60
2018-12-24T07:03:43.894Z,5.60
2018-12-24T07:07:16.624Z,5.50
2018-12-24T07:09:37.075Z,5.50
2018-12-24T07:12:22.840Z,5.40
2018-12-24T07:15:05.516Z,5.40
2018-12-24T07:17:46.840Z,5.30
2018-12-24T07:20:28.174Z,5.30
2018-12-24T07:23:09.600Z,5.20
2018-12-24T07:25:50.910Z,5.10
2018-12-24T07:28:32.037Z,5.00
2018-12-24T07:31:13.510Z,5.00
2018-12-24T07:33:55.162Z,5.00
2018-12-24T07:39:38.022Z,5.00
2018-12-24T07:42:19.561Z,5.00
2018-12-24T07:45:00.909Z,4.90
2018-12-24T07:47:42.737Z,4.90
2018-12-24T07:50:22.686Z,4.90
2018-12-24T07:53:11.585Z,4.90
2018-12-24T07:55:52.720Z,4.90
2018-12-24T07:58:34.104Z,4.90
2018-12-24T08:01:15.484Z,4.80
2018-12-24T08:03:57.946Z,4.80
2018-12-24T08:06:29.144Z,4.80
2018-12-24T08:09:20.421Z,4.70
2018-12-24T08:15:37.285Z,4.60
2018-12-24T08:19:05.366Z,4.50
2018-12-24T08:21:54.174Z,4.50
2018-12-24T08:24:35.505Z,4.40
2018-12-24T08:27:16.922Z,4.40
2018-12-24T08:29:59.078Z,4.40
2018-12-24T08:32:40.405Z,4.30
2018-12-24T08:35:21.988Z,4.30
2018-12-24T08:38:03.330Z,4.30
2018-12-24T08:40:44.407Z,4.20
2018-12-24T08:43:25.959Z,4.20
2018-12-24T08:46:07.752Z,4.20
2018-12-24T08:48:50.129Z,4.10
2018-12-24T08:51:34.752Z,4.10
2018-12-24T08:54:16.692Z,4.10
2018-12-24T08:56:58.094Z,4.10
2018-12-24T08:59:40.003Z,4.00
2018-12-24T09:02:21.705Z,4.00
2018-12-24T09:05:03.519Z,4.10
2018-12-24T09:07:44.179Z,4.10
2018-12-24T09:10:26.194Z,4.00
2018-12-24T09:13:11.675Z,4.00
2018-12-24T09:15:55.665Z,4.00
2018-12-24T09:18:37.269Z,4.00
2018-12-24T09:21:20.066Z,4.00
2018-12-24T09:24:01.221Z,4.10
2018-12-24T09:26:51.232Z,4.00
2018-12-24T09:32:38.616Z,4.10
2018-12-24T09:35:09.356Z,4.10
2018-12-24T09:37:39.363Z,4.10
2018-12-24T09:43:13.544Z,4.10
2018-12-24T09:45:44.969Z,4.10
2018-12-24T09:51:44.095Z,4.10
2018-12-24T09:54:26.825Z,4.20
2018-12-24T10:05:37.317Z,4.20
2018-12-24T10:08:18.433Z,4.20
2018-12-24T10:10:59.865Z,4.10
2018-12-24T10:13:46.841Z,4.20
2018-12-24T10:16:28.603Z,4.10
2018-12-24T10:22:18.721Z,4.10
2018-12-24T10:24:59.789Z,4.10
2018-12-24T10:27:42.268Z,4.10
2018-12-24T10:35:49.187Z,4.10
2018-12-24T10:39:01.919Z,4.10
2018-12-24T10:41:50.286Z,4.10
2018-12-24T10:47:03.259Z,4.10
2018-12-24T10:49:35.960Z,4.10
2018-12-24T10:52:06.887Z,4.10
2018-12-24T10:54:36.651Z,4.10
2018-12-24T10:57:45.215Z,4.10
2018-12-24T11:03:16.429Z,4.10
2018-12-24T11:08:28.963Z,4.00
2018-12-24T11:11:01.660Z,4.00
2018-12-24T11:13:31.554Z,4.00
2018-12-24T11:16:01.634Z,4.10
2018-12-24T11:19:09.397Z,4.10
2018-12-24T11:25:03.295Z,4.10
2018-12-24T11:27:46.350Z,4.20
2018-12-24T11:30:35.961Z,4.20
2018-12-24T11:33:42.356Z,4.20
2018-12-24T11:41:26.793Z,4.30
2018-12-24T11:47:07.078Z,4.30
2018-12-24T11:59:21.710Z,4.20
2018-12-24T12:01:52.340Z,4.30
2018-12-24T12:08:34.386Z,4.30
2018-12-24T12:11:10.319Z,4.30
2018-12-24T12:14:17.173Z,4.40
2018-12-24T12:17:05.126Z,4.40
2018-12-24T12:22:39.901Z,4.40
2018-12-24T12:25:15.079Z,4.40
2018-12-24T12:27:45.790Z,4.40
2018-12-24T12:33:08.219Z,4.40
2018-12-24T12:35:57.348Z,4.40
2018-12-24T12:38:29.868Z,4.40
2018-12-24T12:41:17.550Z,4.40
2018-12-24T12:43:59.366Z,4.40
2018-12-24T12:49:22.890Z,4.50
2018-12-24T12:52:04.235Z,4.50
2018-12-24T12:54:47.678Z,4.50
2018-12-24T12:57:34.674Z,4.50
2018-12-24T13:00:18.349Z,4.40
2018-12-24T13:03:01.671Z,4.40
2018-12-24T13:09:33.329Z,4.50
2018-12-24T13:15:29.299Z,4.40
2018-12-24T13:20:48.895Z,4.40
2018-12-24T13:26:53.835Z,4.50
2018-12-24T13:29:35.288Z,4.50
2018-12-24T13:32:36.388Z,4.50
2018-12-24T13:37:54.765Z,4.50
2018-12-24T13:40:42.840Z,4.50
2018-12-24T13:46:41.063Z,4.60
2018-12-24T13:52:13.843Z,4.70
2018-12-24T13:55:01.090Z,4.70
2018-12-24T13:57:46.500Z,4.70
2018-12-24T14:03:12.746Z,4.70
2018-12-24T14:05:54.580Z,4.70
2018-12-24T14:08:35.566Z,4.70
2018-12-24T14:11:19.978Z,4.70
2018-12-24T14:14:02.359Z,4.70
2018-12-24T14:16:49.833Z,4.60
2018-12-24T14:19:31.600Z,4.60
2018-12-24T14:22:16.150Z,4.60
2018-12-24T14:24:59.221Z,4.50
2018-12-24T14:30:55.779Z,4.50
2018-12-24T14:36:35.019Z,4.40
2018-12-24T14:41:49.965Z,4.40
2018-12-24T14:45:07.470Z,4.40
2018-12-24T14:47:48.793Z,4.40
2018-12-24T14:50:30.428Z,4.30
2018-12-24T14:56:21.860Z,4.30
2018-12-24T14:59:13.852Z,4.30
2018-12-24T15:04:45.890Z,4.20
2018-12-24T15:10:01.090Z,4.10
2018-12-24T15:12:41.190Z,4.00
2018-12-24T15:15:11.623Z,4.00
2018-12-24T15:17:46.154Z,3.90
2018-12-24T15:20:18.618Z,3.90
2018-12-24T15:23:10.035Z,3.80
2018-12-24T15:25:21.154Z,3.80
2018-12-24T15:31:03.804Z,3.60
2018-12-24T15:33:34.613Z,3.60
2018-12-24T15:36:08.219Z,3.50
2018-12-24T15:42:08.081Z,3.40
2018-12-24T15:44:50.098Z,3.30
2018-12-24T15:47:32.219Z,3.30
2018-12-24T15:50:38.843Z,3.30
2018-12-24T15:52:53.487Z,3.30
2018-12-24T15:55:24.409Z,3.30
2018-12-24T15:58:35.428Z,3.30
2018-12-24T16:04:44.212Z,3.40
2018-12-24T16:07:14.865Z,3.40
2018-12-24T16:09:47.938Z,3.50
2018-12-24T16:12:34.040Z,3.50
2018-12-24T16:15:15.529Z,3.50
2018-12-24T16:18:07.188Z,3.50
2018-12-24T16:20:48.669Z,3.60
2018-12-24T16:23:35.813Z,3.70
2018-12-24T16:29:30.135Z,3.70
2018-12-24T16:32:24.826Z,3.70
2018-12-24T16:35:07.355Z,3.80
2018-12-24T16:37:55.545Z,3.80
2018-12-24T16:44:09.809Z,3.90
2018-12-24T16:47:29.210Z,3.90
2018-12-24T16:50:10.943Z,3.90
2018-12-24T16:52:54.552Z,3.90
2018-12-24T16:55:36.623Z,3.90
2018-12-24T17:01:25.294Z,3.90
2018-12-24T17:04:06.855Z,3.90
2018-12-24T17:06:47.751Z,3.90
2018-12-24T17:09:42.520Z,3.90
2018-12-24T17:12:27.961Z,3.90
2018-12-24T17:15:21.470Z,3.80
2018-12-24T17:18:13.397Z,3.80
2018-12-24T17:23:44.972Z,3.80
2018-12-24T17:26:29.267Z,3.80
2018-12-24T17:29:01.634Z,3.90
2018-12-24T17:31:50.827Z,3.90
2018-12-24T17:34:35.662Z,3.80
2018-12-24T17:37:19.609Z,3.80
2018-12-24T17:40:00.664Z,3.90
2018-12-24T17:42:30.802Z,3.90
2018-12-24T17:45:13.700Z,3.90
2018-12-24T17:51:27.279Z,3.90
2018-12-24T17:56:53.589Z,3.90
2018-12-24T17:59:23.559Z,3.90
2018-12-24T18:01:53.271Z,3.90
2018-12-24T18:04:42.383Z,3.90
2018-12-24T18:10:11.519Z,3.70
2018-12-24T18:12:55.148Z,3.70
2018-12-24T18:15:42.420Z,3.70
2018-12-24T18:21:15.519Z,4.20
2018-12-24T18:29:33.503Z,3.70
2018-12-24T18:35:03.779Z,3.80
2018-12-24T18:40:58.381Z,3.80
2018-12-24T18:43:44.163Z,3.90
2018-12-24T18:46:52.026Z,3.90
2018-12-24T18:49:30.828Z,3.90
2018-12-24T18:52:37.434Z,3.90
2018-12-24T18:56:00.941Z,3.90
2018-12-24T18:59:03.009Z,3.90
2018-12-24T19:08:22.721Z,3.90
2018-12-24T19:11:20.070Z,4.00
2018-12-24T19:14:04.301Z,4.00
2018-12-24T19:17:04.921Z,4.00
2018-12-24T19:19:49.905Z,4.00
2018-12-24T19:22:34.213Z,4.00
2018-12-24T19:25:32.857Z,4.00
2018-12-24T19:30:58.790Z,4.10
2018-12-24T19:33:45.269Z,4.20
2018-12-24T19:36:44.781Z,4.20
2018-12-24T19:45:24.546Z,4.30
2018-12-24T19:48:12.015Z,4.30
2018-12-24T19:50:53.824Z,4.30
2018-12-24T20:02:15.761Z,4.30
2018-12-24T20:08:08.562Z,4.30
2018-12-24T20:11:00.217Z,4.30
2018-12-24T20:19:46.177Z,4.30
2018-12-24T20:22:31.901Z,4.30
2018-12-24T20:31:31.264Z,4.40
2018-12-24T20:34:03.002Z,4.40
2018-12-24T20:36:33.860Z,4.40
2018-12-24T20:48:59.938Z,4.30
2018-12-24T20:55:17.012Z,4.30
2018-12-24T20:58:20.042Z,4.30
2018-12-24T21:07:12.445Z,4.40
2018-12-24T21:19:05.559Z,4.40
2018-12-24T21:21:42.032Z,4.40
2018-12-24T21:24:19.047Z,4.40
2018-12-24T21:32:40.139Z,4.40
2018-12-24T21:38:05.654Z,4.40
2018-12-24T21:40:57.408Z,4.40
2018-12-24T21:43:51.591Z,4.40
2018-12-24T21:49:47.169Z,4.40
2018-12-24T21:52:22.353Z,4.40
2018-12-24T21:54:54.833Z,4.40
2018-12-24T21:57:24.990Z,4.40
2018-12-24T22:03:02.903Z,4.40
2018-12-24T22:05:45.714Z,4.40
2018-12-24T22:11:29.668Z,4.50
2018-12-24T22:14:14.058Z,4.50
2018-12-24T22:17:00.886Z,4.50
2018-12-24T22:19:42.449Z,4.50
2018-12-24T22:22:27.787Z,4.60
2018-12-24T22:25:08.687Z,4.60
2018-12-24T22:27:52.366Z,4.60
2018-12-24T22:30:33.608Z,4.60
2018-12-24T22:33:21.968Z,4.60
2018-12-24T22:36:21.208Z,4.50
2018-12-24T22:39:03.338Z,4.50
2018-12-24T22:41:52.786Z,4.60
2018-12-24T22:44:34.999Z,4.60
2018-12-24T22:47:19.171Z,4.60
2018-12-24T22:53:08.751Z,4.70
2018-12-24T22:55:57.805Z,4.60
2018-12-24T22:58:45.061Z,4.70
2018-12-24T23:01:26.842Z,4.70
2018-12-24T23:04:08.090Z,4.70
2018-12-24T23:06:49.716Z,4.70
2018-12-24T23:09:32.315Z,4.70
2018-12-24T23:12:16.699Z,4.70
2018-12-24T23:14:58.592Z,4.70
2018-12-24T23:17:39.476Z,4.70
2018-12-24T23:20:22.584Z,4.70
2018-12-24T23:23:04.016Z,4.70
2018-12-24T23:25:45.400Z,4.70
2018-12-24T23:28:26.700Z,4.70
2018-12-24T23:31:10.797Z,4.70
2018-12-24T23:33:52.182Z,4.70
2018-12-24T23:36:22.242Z,4.70
2018-12-24T23:39:11.508Z,4.70
2018-12-24T23:41:41.541Z,4.70
2018-12-24T23:44:32.693Z,4.70
2018-12-24T23:53:34.330Z,4.60
2018-12-24T23:56:17.389Z,4.60
2018-12-24T23:59:01.801Z,4.60
